Time;durP1;ratioP1;P1;durP2;ratioP2;P2;SDS_P1;SDS_P2;PMS_P1;PMS_P2;Temp;Humidity;BMP_temperature;BMP_pressure;BME280_temperature;BME280_humidity;BME280_pressure;Samples;Min_cycle;Max_cycle;Signal;HPM_P1;HPM_P2
2023/01/16 00:01:56;;;;;;;2.28;1.00;;;2.60;99.90;;;;;;5009107;28;20025;-58
2023/01/16 00:04:22;;;;;;;5.53;1.20;;;2.70;99.90;;;;;;5008616;28;20088;-59
2023/01/16 00:06:48;;;;;;;3.47;1.08;;;2.70;99.90;;;;;;5004419;28;20026;-59
2023/01/16 00:09:14;;;;;;;2.60;0.70;;;2.70;99.90;;;;;;5011805;28;20022;-59
2023/01/16 00:11:39;;;;;;;2.17;0.90;;;2.80;99.90;;;;;;5006404;28;20038;-59
2023/01/16 00:14:05;;;;;;;2.30;0.73;;;2.80;99.90;;;;;;4998251;28;20018;-58
2023/01/16 00:16:31;;;;;;;4.95;0.88;;;2.90;99.90;;;;;;4997661;28;20026;-58
2023/01/16 00:18:56;;;;;;;2.25;0.90;;;2.90;99.90;;;;;;5006971;28;20021;-58
2023/01/16 00:21:25;;;;;;;4.30;0.85;;;2.90;99.90;;;;;;5009367;28;20516;-58
2023/01/16 00:23:53;;;;;;;2.72;0.95;;;2.90;99.90;;;;;;5005334;28;20108;-60
2023/01/16 00:26:18;;;;;;;1.27;1.00;;;2.90;99.90;;;;;;5010873;28;20036;-58
2023/01/16 00:28:44;;;;;;;1.38;0.70;;;2.90;99.90;;;;;;5012312;28;20022;-59
2023/01/16 00:31:11;;;;;;;2.85;0.80;;;2.90;99.90;;;;;;5013209;28;20094;-58
2023/01/16 00:33:37;;;;;;;3.15;0.75;;;2.90;99.90;;;;;;5010133;28;20030;-59
2023/01/16 00:36:03;;;;;;;4.00;0.80;;;2.90;99.90;;;;;;5009558;28;20036;-59
2023/01/16 00:38:30;;;;;;;3.03;0.80;;;2.90;99.90;;;;;;5012131;28;20104;-59
2023/01/16 00:40:55;;;;;;;2.13;1.02;;;2.90;99.90;;;;;;5013810;28;20097;-59
2023/01/16 00:43:22;;;;;;;2.20;0.70;;;2.90;99.90;;;;;;5011945;28;20034;-58
2023/01/16 00:45:47;;;;;;;3.33;0.85;;;2.80;99.90;;;;;;5010070;28;20022;-59
2023/01/16 00:48:13;;;;;;;2.92;0.82;;;2.80;99.90;;;;;;5009068;28;20501;-59
2023/01/16 00:50:39;;;;;;;1.52;0.88;;;2.80;99.90;;;;;;5004467;28;20026;-59
2023/01/16 00:53:05;;;;;;;4.88;1.13;;;2.70;99.90;;;;;;5004890;28;20031;-59
2023/01/16 00:55:33;;;;;;;3.70;1.05;;;2.80;99.90;;;;;;5007793;28;20036;-58
2023/01/16 00:57:59;;;;;;;1.58;0.80;;;2.80;99.90;;;;;;5010161;28;20064;-59
2023/01/16 01:00:25;;;;;;;2.60;0.82;;;2.80;99.90;;;;;;5006740;28;20528;-58
2023/01/16 01:02:51;;;;;;;2.13;0.80;;;2.90;99.90;;;;;;5015577;28;20057;-60
2023/01/16 01:05:17;;;;;;;2.13;0.73;;;2.90;99.90;;;;;;5013650;28;20060;-58
2023/01/16 01:07:43;;;;;;;1.73;0.77;;;2.90;99.90;;;;;;5010966;28;20018;-60
2023/01/16 01:10:09;;;;;;;3.35;1.00;;;2.90;99.90;;;;;;5009711;28;20108;-58
2023/01/16 01:12:35;;;;;;;2.22;0.80;;;2.90;99.90;;;;;;5003783;28;20058;-58
2023/01/16 01:15:01;;;;;;;1.45;0.90;;;2.90;99.90;;;;;;5010702;28;20045;-58
2023/01/16 01:17:27;;;;;;;2.47;0.75;;;2.90;99.90;;;;;;5011443;28;20405;-58
2023/01/16 01:19:53;;;;;;;2.25;1.35;;;2.90;99.90;;;;;;5008148;28;20029;-59
2023/01/16 01:22:18;;;;;;;19.98;2.25;;;3.00;99.90;;;;;;5008312;28;20030;-58
2023/01/16 01:24:48;;;;;;;3.20;0.95;;;3.00;99.90;;;;;;5001818;28;20042;-59
2023/01/16 01:27:13;;;;;;;1.83;0.80;;;3.00;99.90;;;;;;4997094;28;20129;-61
2023/01/16 01:29:39;;;;;;;2.47;1.95;;;3.00;99.90;;;;;;4998436;28;20110;-58
2023/01/16 01:32:05;;;;;;;4.72;0.90;;;3.00;99.90;;;;;;5004834;28;20502;-58
2023/01/16 01:34:33;;;;;;;1.58;0.77;;;3.00;99.90;;;;;;5005707;28;20189;-59
2023/01/16 01:37:04;;;;;;;1.95;0.70;;;3.00;99.90;;;;;;5008594;28;20104;-59
2023/01/16 01:39:30;;;;;;;3.70;0.75;;;3.00;99.90;;;;;;5011835;28;20057;-59
2023/01/16 01:42:42;;;;;;;0.93;0.80;;;3.00;99.90;;;;;;5013783;28;20529;-58
2023/01/16 01:44:56;;;;;;;0.55;0.55;;;2.90;99.90;;;;;;5016883;28;20408;-59
2023/01/16 01:47:37;;;;;;;1.40;0.70;;;2.90;99.90;;;;;;5014386;28;20573;-58
2023/01/16 01:50:11;;;;;;;2.50;0.70;;;2.90;99.90;;;;;;5007607;28;20112;-59
2023/01/16 01:52:36;;;;;;;2.15;0.88;;;2.90;99.90;;;;;;5013380;28;20281;-58
2023/01/16 01:55:06;;;;;;;2.25;0.68;;;3.00;99.90;;;;;;5016092;28;20084;-58
2023/01/16 01:57:41;;;;;;;0.98;0.70;;;3.00;99.90;;;;;;5012769;28;20042;-59
2023/01/16 02:00:11;;;;;;;1.40;0.75;;;3.00;99.90;;;;;;5013038;28;20064;-58
2023/01/16 02:02:42;;;;;;;8.00;1.65;;;2.90;99.90;;;;;;5010284;28;20062;-59
2023/01/16 02:05:10;;;;;;;;;;;2.90;99.90;;;;;;5012164;28;20028;-59
2023/01/16 02:07:36;;;;;;;7.30;1.92;;;2.90;99.90;;;;;;5010983;28;19912;-58
2023/01/16 02:10:37;;;;;;;2.40;1.38;;;2.90;99.90;;;;;;5007295;28;20033;-59
2023/01/16 02:13:03;;;;;;;1.52;0.60;;;2.90;99.90;;;;;;5006522;28;20038;-59
2023/01/16 02:15:30;;;;;;;1.35;0.70;;;2.90;99.90;;;;;;5012163;28;20040;-57
2023/01/16 02:21:11;;;;;;;4.97;1.10;;;2.80;99.90;;;;;;5011572;28;20503;-59
2023/01/16 02:23:40;;;;;;;2.42;0.70;;;2.70;99.90;;;;;;5005623;28;20029;-58
2023/01/16 02:26:39;;;;;;;3.20;0.63;;;2.70;99.90;;;;;;5012391;28;20109;-58
2023/01/16 02:29:30;;;;;;;1.73;0.65;;;2.70;99.90;;;;;;5013287;28;20026;-58
2023/01/16 02:32:21;;;;;;;2.35;0.98;;;2.70;99.90;;;;;;5007103;28;20053;-58
2023/01/16 02:35:11;;;;;;;1.73;0.77;;;2.70;99.90;;;;;;5016624;28;20054;-58
2023/01/16 02:37:40;;;;;;;1.00;0.60;;;2.60;99.90;;;;;;5011001;28;20034;-58
2023/01/16 02:40:15;;;;;;;3.67;0.68;;;2.70;99.90;;;;;;5007862;28;20029;-59
2023/01/16 02:42:50;;;;;;;3.20;0.70;;;2.70;99.90;;;;;;5008267;28;20038;-58
2023/01/16 02:45:41;;;;;;;4.10;0.80;;;2.70;99.90;;;;;;5017008;28;20022;-59
2023/01/16 02:48:33;;;;;;;2.85;0.85;;;2.70;99.90;;;;;;5013865;28;20347;-58
2023/01/16 02:51:24;;;;;;;2.45;1.10;;;2.70;99.90;;;;;;5005188;28;20083;-58
2023/01/16 02:54:10;;;;;;;1.53;0.70;;;2.80;99.90;;;;;;5014942;28;20448;-60
2023/01/16 02:57:16;;;;;;;2.03;0.70;;;2.80;99.90;;;;;;5017612;28;20028;-58
2023/01/16 02:59:42;;;;;;;2.50;0.75;;;2.80;99.90;;;;;;4986130;28;20030;-59
2023/01/16 03:02:09;;;;;;;2.28;0.70;;;2.80;99.90;;;;;;4985905;28;20885;-58
2023/01/16 03:04:34;;;;;;;4.30;0.77;;;2.80;99.90;;;;;;4997243;28;20029;-58
2023/01/16 03:07:35;;;;;;;1.20;0.70;;;2.80;99.90;;;;;;5003679;28;20080;-58
2023/01/16 03:10:21;;;;;;;2.35;0.80;;;2.80;99.90;;;;;;5020477;28;20029;-58
2023/01/16 03:13:26;;;;;;;1.90;0.70;;;2.90;99.90;;;;;;5013962;28;20464;-58
2023/01/16 03:15:54;;;;;;;7.72;0.90;;;2.90;99.90;;;;;;5007103;28;20033;-59
2023/01/16 03:18:44;;;;;;;1.38;0.90;;;2.90;99.90;;;;;;5010193;28;20559;-60
2023/01/16 03:21:36;;;;;;;2.28;0.73;;;2.90;99.90;;;;;;5012582;28;20434;-58
2023/01/16 03:24:22;;;;;;;1.50;0.60;;;2.90;99.90;;;;;;5009001;28;20038;-59
2023/01/16 03:26:51;;;;;;;2.67;0.50;;;2.90;99.90;;;;;;4997116;28;20018;-59
2023/01/16 03:29:33;;;;;;;2.38;0.73;;;2.90;99.90;;;;;;5008290;28;20377;-59
2023/01/16 03:32:30;;;;;;;0.98;0.50;;;2.90;99.90;;;;;;5016726;28;20019;-60
2023/01/16 03:35:09;;;;;;;1.27;0.50;;;2.90;99.90;;;;;;5011982;28;20109;-59
2023/01/16 03:37:44;;;;;;;1.42;0.73;;;2.90;99.90;;;;;;5014680;28;20495;-60
2023/01/16 03:40:15;;;;;;;3.83;0.57;;;2.90;99.90;;;;;;5001280;28;20030;-58
2023/01/16 03:42:52;;;;;;;3.58;0.73;;;2.90;99.90;;;;;;5008924;28;20036;-59
2023/01/16 03:45:38;;;;;;;1.35;0.63;;;2.90;99.90;;;;;;5008257;28;20105;-58
2023/01/16 03:48:19;;;;;;;1.38;0.85;;;2.90;99.90;;;;;;5008311;28;20034;-58
2023/01/16 03:50:52;;;;;;;3.00;0.70;;;2.80;99.90;;;;;;5009993;28;20473;-59
2023/01/16 03:53:21;;;;;;;1.05;0.70;;;2.90;99.90;;;;;;5004498;28;20051;-59
2023/01/16 03:55:59;;;;;;;0.93;0.70;;;2.80;99.90;;;;;;5013147;28;20474;-59
2023/01/16 03:58:31;;;;;;;2.35;0.70;;;2.80;99.90;;;;;;5011764;28;20056;-59
2023/01/16 04:01:09;;;;;;;1.40;0.80;;;2.80;99.90;;;;;;5010287;28;20049;-59
2023/01/16 04:03:44;;;;;;;1.33;0.68;;;2.80;99.90;;;;;;5009020;28;20037;-59
2023/01/16 04:06:19;;;;;;;4.85;0.80;;;2.80;99.90;;;;;;5004813;28;20022;-59
2023/01/16 04:08:46;;;;;;;1.40;0.60;;;2.80;99.90;;;;;;5001850;28;20036;-60
2023/01/16 04:11:14;;;;;;;2.72;0.70;;;2.70;99.90;;;;;;5009426;28;20496;-58
2023/01/16 04:13:43;;;;;;;3.55;0.80;;;2.80;99.90;;;;;;5011172;28;20021;-60
2023/01/16 04:16:14;;;;;;;6.32;1.52;;;2.80;99.90;;;;;;5006994;28;20010;-59
2023/01/16 04:18:40;;;;;;;1.95;0.65;;;2.70;99.90;;;;;;5001254;28;20034;-58
2023/01/16 04:21:07;;;;;;;2.00;1.13;;;2.60;99.90;;;;;;5002739;28;20122;-62
2023/01/16 04:23:34;;;;;;;3.08;0.80;;;2.40;99.90;;;;;;5002825;28;20498;-58
2023/01/16 04:26:00;;;;;;;3.10;0.80;;;2.30;99.90;;;;;;5016096;28;20022;-58
2023/01/16 04:28:25;;;;;;;1.73;0.80;;;2.20;99.90;;;;;;5011810;28;20092;-59
2023/01/16 04:30:51;;;;;;;2.25;1.50;;;2.20;99.90;;;;;;5012336;28;20046;-58
2023/01/16 04:33:16;;;;;;;5.53;0.80;;;2.20;99.90;;;;;;5011773;28;20482;-58
2023/01/16 04:35:42;;;;;;;3.08;0.65;;;2.20;99.90;;;;;;5013123;28;20022;-59
2023/01/16 04:38:08;;;;;;;2.03;0.63;;;2.30;99.90;;;;;;5007973;28;20022;-59
2023/01/16 04:40:33;;;;;;;4.18;0.90;;;2.30;99.90;;;;;;5010423;28;20017;-58
2023/01/16 04:42:59;;;;;;;6.93;0.90;;;2.30;99.90;;;;;;5006737;28;20021;-59
2023/01/16 04:45:25;;;;;;;3.95;0.75;;;2.40;99.90;;;;;;5013601;28;20052;-58
2023/01/16 04:47:51;;;;;;;3.22;1.55;;;2.40;99.90;;;;;;5010861;28;20033;-59
2023/01/16 04:50:17;;;;;;;2.70;0.90;;;2.40;99.90;;;;;;5009154;28;20080;-58
2023/01/16 04:52:44;;;;;;;1.85;0.70;;;2.40;99.90;;;;;;5008363;28;20052;-58
2023/01/16 04:55:10;;;;;;;0.95;0.60;;;2.40;99.90;;;;;;5007156;28;20033;-58
2023/01/16 04:57:36;;;;;;;1.48;0.70;;;2.40;99.90;;;;;;5010721;28;20062;-59
2023/01/16 05:00:03;;;;;;;7.88;1.45;;;2.40;99.90;;;;;;5006771;28;20060;-59
2023/01/16 05:02:29;;;;;;;3.92;0.70;;;2.40;99.90;;;;;;5007460;28;20801;-58
2023/01/16 05:04:55;;;;;;;2.05;0.73;;;2.40;99.90;;;;;;5004016;28;20030;-58
2023/01/16 05:07:20;;;;;;;2.85;0.90;;;2.40;99.90;;;;;;5007527;28;20040;-59
2023/01/16 05:09:46;;;;;;;2.92;0.90;;;2.30;99.90;;;;;;5013654;28;20018;-59
2023/01/16 05:12:11;;;;;;;2.03;0.63;;;2.30;99.90;;;;;;5015399;28;20026;-58
2023/01/16 05:14:37;;;;;;;2.42;0.70;;;2.30;99.90;;;;;;5015524;28;20093;-59
2023/01/16 05:17:03;;;;;;;2.17;0.80;;;2.30;99.90;;;;;;5011493;28;20030;-58
2023/01/16 05:19:28;;;;;;;1.98;0.80;;;2.30;99.90;;;;;;5019053;28;20059;-60
2023/01/16 05:21:54;;;;;;;2.00;0.80;;;2.30;99.90;;;;;;5010482;28;20477;-60
2023/01/16 05:24:19;;;;;;;6.32;1.00;;;2.30;99.90;;;;;;5017936;28;20040;-58
2023/01/16 05:26:45;;;;;;;1.85;0.80;;;2.30;99.90;;;;;;5015524;28;20039;-58
2023/01/16 05:29:11;;;;;;;7.03;2.05;;;2.30;99.90;;;;;;5014085;28;20037;-58
2023/01/16 05:31:36;;;;;;;2.95;0.70;;;2.30;99.90;;;;;;5013951;28;20444;-58
2023/01/16 05:34:03;;;;;;;3.40;0.70;;;2.30;99.90;;;;;;5011973;28;20049;-58
2023/01/16 05:36:29;;;;;;;1.73;0.73;;;2.30;99.90;;;;;;5009588;28;20460;-57
2023/01/16 05:38:54;;;;;;;3.33;1.45;;;2.30;99.90;;;;;;5017651;28;20073;-58
2023/01/16 05:41:20;;;;;;;2.05;1.05;;;2.30;99.90;;;;;;5015192;28;20506;-58
2023/01/16 05:43:46;;;;;;;3.65;0.88;;;2.20;99.90;;;;;;5011551;28;20034;-58
2023/01/16 05:46:12;;;;;;;1.00;0.70;;;2.20;99.90;;;;;;5002279;28;20164;-57
2023/01/16 05:48:38;;;;;;;3.75;0.75;;;2.20;99.90;;;;;;5017724;28;20472;-58
2023/01/16 05:51:04;;;;;;;2.55;0.70;;;2.20;99.90;;;;;;5016224;28;20049;-59
2023/01/16 05:53:30;;;;;;;2.80;0.60;;;2.20;99.90;;;;;;5012647;28;20030;-60
2023/01/16 05:55:57;;;;;;;2.25;0.50;;;2.20;99.90;;;;;;5012604;28;20040;-58
2023/01/16 05:58:23;;;;;;;1.92;0.70;;;2.20;99.90;;;;;;5010010;28;20026;-58
2023/01/16 06:00:48;;;;;;;2.55;0.90;;;2.20;99.90;;;;;;5009221;28;20029;-58
2023/01/16 06:03:17;;;;;;;2.53;0.80;;;2.20;99.90;;;;;;5019162;28;20108;-58
2023/01/16 06:05:43;;;;;;;1.67;0.70;;;2.20;99.90;;;;;;5011096;28;20077;-59
2023/01/16 06:08:09;;;;;;;2.63;0.70;;;2.10;99.90;;;;;;5013657;28;20041;-59
2023/01/16 06:10:35;;;;;;;6.05;0.90;;;2.10;99.90;;;;;;5006922;28;20025;-57
2023/01/16 06:13:01;;;;;;;3.38;1.20;;;2.10;99.90;;;;;;5013220;28;20035;-57
2023/01/16 06:15:27;;;;;;;1.63;0.80;;;2.10;99.90;;;;;;5012575;28;20572;-58
2023/01/16 06:17:53;;;;;;;2.05;1.23;;;2.10;99.90;;;;;;5006414;28;20034;-58
2023/01/16 06:20:19;;;;;;;3.53;0.88;;;2.10;99.90;;;;;;5005769;28;20637;-58
2023/01/16 06:22:45;;;;;;;1.98;0.90;;;2.00;99.90;;;;;;5010835;28;20029;-59
2023/01/16 06:25:11;;;;;;;3.03;0.82;;;2.00;99.90;;;;;;5006982;28;20054;-58
2023/01/16 06:27:36;;;;;;;1.55;0.80;;;2.00;99.90;;;;;;5017795;28;20106;-59
2023/01/16 06:30:04;;;;;;;1.27;0.70;;;2.00;99.90;;;;;;5014186;28;20145;-58
2023/01/16 06:32:29;;;;;;;1.02;0.70;;;2.00;99.90;;;;;;5005190;28;20041;-58
2023/01/16 06:34:55;;;;;;;2.25;0.90;;;2.00;99.90;;;;;;5008633;28;20026;-57
2023/01/16 06:37:20;;;;;;;3.83;0.80;;;1.90;99.90;;;;;;5012101;28;20038;-59
2023/01/16 06:39:46;;;;;;;1.20;0.98;;;1.90;99.90;;;;;;5011595;28;20501;-58
2023/01/16 06:42:12;;;;;;;4.13;1.30;;;1.90;99.90;;;;;;5010397;28;20033;-59
2023/01/16 06:44:37;;;;;;;2.80;1.40;;;1.90;99.90;;;;;;5011823;28;20106;-59
2023/01/16 06:47:04;;;;;;;2.10;1.00;;;1.90;99.90;;;;;;5011259;28;20033;-58
2023/01/16 06:49:29;;;;;;;3.05;0.93;;;2.00;99.90;;;;;;5015757;28;20032;-57
2023/01/16 06:51:55;;;;;;;1.67;0.80;;;2.00;99.90;;;;;;5012329;28;20733;-58
2023/01/16 06:54:20;;;;;;;3.42;0.98;;;1.90;99.90;;;;;;5012331;28;20108;-59
2023/01/16 06:56:46;;;;;;;1.83;0.80;;;1.90;99.90;;;;;;5013140;28;20537;-58
2023/01/16 06:59:12;;;;;;;2.78;1.52;;;1.80;99.90;;;;;;5008776;28;20041;-58
2023/01/16 07:01:37;;;;;;;4.60;1.20;;;1.80;99.90;;;;;;5009264;28;20033;-59
2023/01/16 07:04:03;;;;;;;2.60;0.70;;;1.70;99.90;;;;;;5009497;28;20025;-58
2023/01/16 07:06:29;;;;;;;3.47;1.38;;;1.60;99.90;;;;;;5009388;28;20045;-57
2023/01/16 07:08:54;;;;;;;2.80;0.98;;;1.50;99.90;;;;;;5012273;28;20029;-57
2023/01/16 07:11:20;;;;;;;6.03;1.00;;;1.40;99.90;;;;;;5012912;28;20157;-58
2023/01/16 07:13:46;;;;;;;4.90;1.15;;;1.40;99.90;;;;;;5012994;28;20058;-58
2023/01/16 07:24:35;;;;;;;3.50;0.93;;;1.30;99.90;;;;;;5010968;28;20166;-58
2023/01/16 07:27:04;;;;;;;;;;;1.30;99.90;;;;;;5016753;28;20548;-58
2023/01/16 07:29:31;;;;;;;4.35;1.08;;;1.20;99.90;;;;;;5009540;28;19921;-58
2023/01/16 07:31:59;;;;;;;2.50;1.10;;;1.20;99.90;;;;;;5010525;28;20034;-58
2023/01/16 07:34:24;;;;;;;4.22;1.00;;;1.20;99.90;;;;;;5014417;28;20036;-58
2023/01/16 07:36:50;;;;;;;3.78;0.80;;;1.20;99.90;;;;;;5013357;28;20257;-58
2023/01/16 07:39:15;;;;;;;1.83;0.80;;;1.20;99.90;;;;;;5013232;28;20409;-59
2023/01/16 07:41:41;;;;;;;1.67;0.90;;;1.10;99.90;;;;;;5008318;28;20037;-59
2023/01/16 07:44:07;;;;;;;2.65;1.08;;;1.20;99.90;;;;;;5010630;28;20116;-58
2023/01/16 07:46:32;;;;;;;5.63;1.90;;;1.20;99.90;;;;;;5007011;28;20037;-58
2023/01/16 07:48:58;;;;;;;1.42;0.90;;;1.20;99.90;;;;;;5009026;28;20494;-58
2023/01/16 07:51:24;;;;;;;3.45;1.10;;;1.20;99.90;;;;;;5009393;28;20380;-58
2023/01/16 07:53:50;;;;;;;2.22;0.93;;;1.30;99.90;;;;;;5007215;28;20082;-58
2023/01/16 07:56:16;;;;;;;3.17;0.88;;;1.30;99.90;;;;;;5007428;28;20115;-59
2023/01/16 07:58:42;;;;;;;1.17;0.90;;;1.30;99.90;;;;;;5004546;28;20030;-59
2023/01/16 08:01:09;;;;;;;1.02;0.88;;;1.30;99.90;;;;;;5010608;28;20033;-58
2023/01/16 08:03:36;;;;;;;1.38;0.73;;;1.40;99.90;;;;;;5009770;28;20018;-58
2023/01/16 08:06:02;;;;;;;7.20;1.08;;;1.50;99.90;;;;;;5014585;28;20089;-58
2023/01/16 08:08:28;;;;;;;2.65;0.90;;;1.50;99.90;;;;;;5013982;28;20124;-59
2023/01/16 08:10:58;;;;;;;2.65;0.80;;;1.50;99.90;;;;;;5012379;28;20034;-58
2023/01/16 08:13:25;;;;;;;1.80;1.00;;;1.50;99.90;;;;;;5008775;28;20405;-58
2023/01/16 08:15:51;;;;;;;5.18;2.55;;;1.60;99.90;;;;;;5007695;28;20032;-58
2023/01/16 08:18:18;;;;;;;1.58;0.93;;;1.60;99.90;;;;;;5011438;28;20413;-59
2023/01/16 08:20:45;;;;;;;1.77;0.95;;;1.60;99.90;;;;;;5010018;28;20097;-58
2023/01/16 08:23:11;;;;;;;5.15;1.40;;;1.70;99.90;;;;;;5011821;28;20026;-58
2023/01/16 08:25:37;;;;;;;2.40;0.90;;;1.70;99.90;;;;;;5012982;28;20042;-58
2023/01/16 08:28:03;;;;;;;1.58;1.15;;;1.80;99.90;;;;;;5013016;28;20032;-57
2023/01/16 08:30:29;;;;;;;1.85;0.70;;;1.80;99.90;;;;;;5007186;28;20026;-58
2023/01/16 08:32:59;;;;;;;2.08;1.20;;;1.80;99.90;;;;;;5012779;28;20026;-58
2023/01/16 08:35:25;;;;;;;1.67;0.85;;;1.80;99.90;;;;;;5012980;28;20583;-58
2023/01/16 08:37:51;;;;;;;1.92;0.75;;;1.70;99.90;;;;;;5009033;28;20029;-58
2023/01/16 08:40:17;;;;;;;1.38;0.90;;;1.70;99.90;;;;;;5009843;28;20029;-57
2023/01/16 08:53:44;;;;;;;1.27;0.90;;;1.80;99.90;;;;;;5009900;28;20056;-58
2023/01/16 08:56:09;;;;;;;2.05;0.90;;;1.90;99.90;;;;;;5014151;28;20061;-58
2023/01/16 08:58:35;;;;;;;1.60;0.93;;;2.00;99.90;;;;;;5015162;28;20020;-58
2023/01/16 09:01:01;;;;;;;2.88;0.90;;;2.10;99.90;;;;;;5012449;28;20508;-58
2023/01/16 09:03:26;;;;;;;3.22;1.05;;;2.20;99.90;;;;;;5016048;28;20038;-58
2023/01/16 09:05:52;;;;;;;2.15;1.00;;;2.20;99.90;;;;;;5012671;28;20378;-58
2023/01/16 09:08:17;;;;;;;1.33;0.95;;;2.20;99.90;;;;;;5011447;28;20029;-58
2023/01/16 09:13:48;;;;;;;3.00;0.95;;;2.30;99.90;;;;;;5012696;28;20025;-57
2023/01/16 09:16:13;;;;;;;1.67;0.90;;;2.40;99.90;;;;;;5013002;28;20028;-57
2023/01/16 09:18:38;;;;;;;3.45;1.17;;;2.50;99.90;;;;;;5016741;28;20018;-59
2023/01/16 09:21:04;;;;;;;6.60;1.30;;;2.60;99.90;;;;;;5014107;28;20033;-58
2023/01/16 09:23:30;;;;;;;1.48;0.90;;;2.80;99.90;;;;;;5013210;28;20438;-58
2023/01/16 09:25:55;;;;;;;2.95;0.77;;;3.20;99.90;;;;;;5013131;28;20034;-57
2023/01/16 09:28:21;;;;;;;1.50;1.20;;;3.70;99.90;;;;;;5011170;28;20121;-59
2023/01/16 09:30:46;;;;;;;3.50;1.00;;;4.10;99.90;;;;;;5014150;28;20021;-58
2023/01/16 09:33:12;;;;;;;1.73;1.00;;;4.60;99.90;;;;;;5014950;28;20054;-59
2023/01/16 09:35:38;;;;;;;1.17;0.90;;;5.10;99.90;;;;;;5010981;28;20084;-59
2023/01/16 09:38:03;;;;;;;0.90;0.68;;;5.50;99.90;;;;;;5014371;28;20827;-59
2023/01/16 09:40:30;;;;;;;1.65;0.90;;;5.60;99.90;;;;;;5013074;28;20042;-58
2023/01/16 09:46:13;;;;;;;2.08;1.88;;;5.70;99.90;;;;;;5009029;28;20514;-60
2023/01/16 09:48:55;;;;;;;3.42;0.90;;;5.70;99.90;;;;;;5008688;28;20165;-61
2023/01/16 09:51:28;;;;;;;0.90;0.63;;;5.30;99.90;;;;;;5013398;28;20041;-58
2023/01/16 09:59:38;;;;;;;1.48;0.60;;;5.60;99.90;;;;;;5004057;28;20048;-59
2023/01/16 10:02:07;;;;;;;0.68;0.60;;;5.90;99.90;;;;;;5014491;28;20045;-56
2023/01/16 10:04:33;;;;;;;9.50;0.90;;;6.10;99.90;;;;;;5017055;28;20125;-57
2023/01/16 10:06:59;;;;;;;1.92;0.77;;;5.90;99.90;;;;;;5010086;28;20108;-60
2023/01/16 10:09:33;;;;;;;1.65;0.80;;;6.00;99.90;;;;;;5009207;28;20030;-58
2023/01/16 10:12:04;;;;;;;1.45;0.80;;;6.20;99.90;;;;;;5012876;28;20050;-58
2023/01/16 10:14:36;;;;;;;1.17;0.88;;;6.40;99.90;;;;;;5011565;28;20453;-59
2023/01/16 10:17:27;;;;;;;1.50;0.80;;;6.60;99.90;;;;;;5009681;28;20025;-58
2023/01/16 10:20:24;;;;;;;1.48;0.70;;;6.50;99.90;;;;;;5007016;28;20105;-57
2023/01/16 10:23:01;;;;;;;1.63;0.75;;;6.40;99.90;;;;;;5013513;28;20116;-57
2023/01/16 10:25:35;;;;;;;0.73;0.60;;;6.30;99.90;;;;;;5014392;28;20116;-59
2023/01/16 10:28:20;;;;;;;3.03;0.70;;;6.40;99.90;;;;;;5017714;28;20041;-58
2023/01/16 10:30:54;;;;;;;1.02;0.70;;;6.20;99.90;;;;;;5010481;28;20030;-58
2023/01/16 10:33:31;;;;;;;2.90;0.70;;;6.10;99.90;;;;;;5009306;28;20638;-58
2023/01/16 10:36:00;;;;;;;1.55;1.10;;;5.90;99.90;;;;;;5007332;28;20038;-58
2023/01/16 10:41:00;;;;;;;1.33;0.82;;;6.20;99.90;;;;;;5002086;28;20572;-60
2023/01/16 10:49:27;;;;;;;3.28;0.90;;;6.30;99.90;;;;;;5006509;28;20025;-58
2023/01/16 10:52:00;;;;;;;3.30;0.70;;;5.90;99.90;;;;;;5008614;28;20077;-57
2023/01/16 10:54:25;;;;;;;2.75;0.60;;;5.80;99.90;;;;;;5012568;28;20030;-59
2023/01/16 10:56:51;;;;;;;1.55;0.88;;;5.70;99.90;;;;;;5013057;28;20044;-58
2023/01/16 10:59:18;;;;;;;1.00;0.63;;;5.60;99.90;;;;;;5016013;28;20552;-57
2023/01/16 11:01:45;;;;;;;2.03;1.00;;;5.90;99.90;;;;;;5016695;28;20388;-58
2023/01/16 11:04:11;;;;;;;1.85;0.63;;;6.20;99.90;;;;;;5009577;28;20025;-58
2023/01/16 11:06:40;;;;;;;2.08;0.70;;;6.50;99.90;;;;;;5006369;28;20026;-57
2023/01/16 11:09:15;;;;;;;1.25;0.70;;;6.50;99.90;;;;;;5010256;28;20026;-58
2023/01/16 11:20:03;;;;;;;1.48;0.70;;;6.40;99.90;;;;;;5009550;28;20087;-57
2023/01/16 11:22:28;;;;;;;1.10;0.70;;;6.40;99.90;;;;;;5010627;28;20029;-59
2023/01/16 11:24:58;;;;;;;1.95;0.75;;;6.40;99.90;;;;;;5010308;28;20025;-58
2023/01/16 11:27:29;;;;;;;0.52;0.50;;;6.20;99.90;;;;;;5015757;28;20072;-58
2023/01/16 11:29:57;;;;;;;2.17;0.70;;;5.90;99.90;;;;;;5014351;28;20498;-57
2023/01/16 11:32:27;;;;;;;1.50;0.70;;;5.70;99.90;;;;;;5003942;28;20129;-58
2023/01/16 11:34:56;;;;;;;1.90;0.60;;;5.50;99.90;;;;;;5008510;28;20026;-58
2023/01/16 11:37:22;;;;;;;1.42;0.50;;;5.50;99.90;;;;;;5014550;28;20054;-58
2023/01/16 11:39:52;;;;;;;0.98;0.50;;;5.40;99.90;;;;;;5011190;28;20028;-58
2023/01/16 11:48:24;;;;;;;0.98;0.80;;;5.10;99.90;;;;;;5004654;28;20420;-59
2023/01/16 11:50:52;;;;;;;2.08;0.85;;;5.20;99.90;;;;;;5009881;28;20437;-58
2023/01/16 11:53:18;;;;;;;0.60;0.60;;;5.40;99.90;;;;;;5006047;28;20487;-58
2023/01/16 11:55:49;;;;;;;0.80;0.50;;;5.70;99.90;;;;;;5007495;28;20085;-58
2023/01/16 11:58:26;;;;;;;1.77;0.50;;;6.00;99.90;;;;;;5009771;28;20105;-58
2023/01/16 12:01:06;;;;;;;0.95;0.63;;;6.10;99.90;;;;;;5013525;28;20052;-58
2023/01/16 12:03:34;;;;;;;0.90;0.50;;;6.30;99.90;;;;;;5009584;28;20029;-58
2023/01/16 12:06:14;;;;;;;3.78;0.90;;;6.30;99.90;;;;;;5011138;28;20049;-58
2023/01/16 12:09:13;;;;;;;2.40;0.60;;;6.20;99.90;;;;;;5010904;28;20049;-58
2023/01/16 12:11:47;;;;;;;2.10;0.80;;;6.00;99.90;;;;;;5012740;28;20027;-58
2023/01/16 12:14:48;;;;;;;2.35;0.70;;;5.90;99.90;;;;;;5007254;28;20064;-59
2023/01/16 12:17:24;;;;;;;2.33;1.20;;;6.10;99.90;;;;;;5008437;28;20664;-57
2023/01/16 12:20:17;;;;;;;1.55;0.93;;;6.30;99.90;;;;;;5009649;28;20033;-59
2023/01/16 12:23:17;;;;;;;1.05;0.50;;;6.50;99.90;;;;;;5009414;28;20451;-57
2023/01/16 12:26:10;;;;;;;4.15;0.80;;;6.20;99.90;;;;;;5011859;28;20038;-56
2023/01/16 12:28:54;;;;;;;2.00;0.70;;;6.40;99.90;;;;;;5008953;28;20018;-58
2023/01/16 12:32:06;;;;;;;2.28;1.00;;;6.40;99.90;;;;;;5011005;28;20060;-59
2023/01/16 12:34:40;;;;;;;1.55;0.50;;;6.60;99.90;;;;;;5005332;28;20050;-59
2023/01/16 12:37:08;;;;;;;2.47;0.63;;;6.60;99.90;;;;;;5007075;28;20425;-60
2023/01/16 12:39:37;;;;;;;1.35;0.65;;;6.40;99.90;;;;;;5008571;28;20129;-58
2023/01/16 12:45:34;;;;;;;3.00;0.90;;;6.20;99.90;;;;;;5013340;28;20048;-58
2023/01/16 12:48:26;;;;;;;1.30;0.98;;;6.20;99.90;;;;;;5003040;28;20034;-58
2023/01/16 12:51:18;;;;;;;1.55;0.70;;;6.10;99.90;;;;;;4998590;28;20037;-58
2023/01/16 12:54:00;;;;;;;2.47;0.60;;;6.00;99.90;;;;;;5010233;28;20056;-59
2023/01/16 12:56:53;;;;;;;0.47;0.47;;;5.90;99.90;;;;;;5013340;28;20056;-58
2023/01/16 12:59:28;;;;;;;1.17;0.55;;;5.70;99.90;;;;;;5010457;28;20033;-59
2023/01/16 13:02:09;;;;;;;1.58;0.60;;;5.60;99.90;;;;;;5008135;28;20033;-59
2023/01/16 13:04:42;;;;;;;2.22;0.70;;;5.60;99.90;;;;;;5007091;28;20074;-57
2023/01/16 13:07:15;;;;;;;4.45;0.68;;;5.60;99.90;;;;;;5000036;28;20017;-59
2023/01/16 13:09:43;;;;;;;0.85;0.50;;;5.60;99.90;;;;;;5006390;28;20112;-59
2023/01/16 13:15:35;;;;;;;2.47;1.25;;;5.60;99.90;;;;;;5012046;28;20532;-58
2023/01/16 13:18:17;;;;;;;2.03;0.50;;;5.70;99.90;;;;;;5015637;28;20739;-58
2023/01/16 13:20:46;;;;;;;1.20;0.60;;;5.70;99.90;;;;;;5009951;28;20604;-58
2023/01/16 13:23:16;;;;;;;1.27;0.52;;;5.80;99.90;;;;;;5009982;28;20030;-61
2023/01/16 13:25:45;;;;;;;1.88;0.40;;;5.80;99.90;;;;;;5008812;28;20037;-61
2023/01/16 13:28:32;;;;;;;2.15;0.60;;;5.80;99.90;;;;;;5007850;28;20052;-60
2023/01/16 13:31:02;;;;;;;1.38;0.50;;;5.80;99.90;;;;;;5006632;28;20150;-59
2023/01/16 13:33:32;;;;;;;0.43;0.43;;;5.80;99.90;;;;;;5007117;28;20030;-61
2023/01/16 13:36:05;;;;;;;1.20;1.08;;;5.80;99.90;;;;;;5003268;28;20038;-60
2023/01/16 13:38:50;;;;;;;1.40;0.68;;;5.80;99.90;;;;;;5013112;28;20038;-60
2023/01/16 13:41:25;;;;;;;0.52;0.50;;;5.80;99.90;;;;;;5013005;28;20125;-60
2023/01/16 13:47:10;;;;;;;3.22;1.77;;;5.80;99.90;;;;;;5011459;28;20129;-61
2023/01/16 13:49:37;;;;;;;0.73;0.40;;;5.80;99.90;;;;;;5014267;28;20052;-60
2023/01/16 13:52:03;;;;;;;1.33;0.40;;;5.80;99.90;;;;;;5015614;28;20030;-61
2023/01/16 13:54:37;;;;;;;0.45;0.40;;;5.70;99.90;;;;;;5017166;28;20027;-59
2023/01/16 13:57:08;;;;;;;0.88;0.50;;;5.60;99.90;;;;;;5014810;28;20117;-60
2023/01/16 13:59:45;;;;;;;1.13;0.43;;;5.60;99.90;;;;;;5017595;28;20120;-58
2023/01/16 14:02:44;;;;;;;1.55;0.50;;;5.50;99.90;;;;;;5013615;28;20045;-58
2023/01/16 14:05:37;;;;;;;1.42;0.50;;;5.40;99.90;;;;;;5012614;28;20033;-56
2023/01/16 14:11:34;;;;;;;0.68;0.40;;;5.40;99.90;;;;;;5010481;28;20581;-57
2023/01/16 14:17:10;;;;;;;0.77;0.40;;;5.30;99.90;;;;;;5012624;28;20041;-60
2023/01/16 14:19:53;;;;;;;0.40;0.40;;;5.30;99.90;;;;;;5011105;28;20042;-58
2023/01/16 14:24:59;;;;;;;2.38;0.60;;;5.30;99.90;;;;;;5013808;28;20539;-55
2023/01/16 14:27:36;;;;;;;2.20;0.60;;;5.30;99.90;;;;;;5006681;28;20034;-58
2023/01/16 14:30:06;;;;;;;1.20;0.47;;;5.30;99.90;;;;;;5014194;28;20506;-58
2023/01/16 14:32:35;;;;;;;1.73;0.50;;;5.30;99.90;;;;;;5010652;28;20038;-57
2023/01/16 14:35:15;;;;;;;0.95;0.40;;;5.30;99.90;;;;;;5004096;28;20017;-58